Main page
METAR-TAF:

METAR-TAF

Airports :

Stornoway Airport

Stornoway, Scotland

latitude: 58-13N, longitude: 006-19W, elevation: 9 m

Current weather observation

The report was made 35 minutes ago, at 04:50 UTC
Wind 1 kt from the North/Northwest
Temperature 2°C
Humidity 100%
Pressure 994 hPa
Visibility 10 km or more
no clouds below 1500 m and no cumulonimbus

METAR: EGPO 240450Z 33001KT CAVOK 02/02 Q0994

Time: 06:25 (05:25 UTC)

Forecast

The report was made 3 hours and 30 minutes ago, at 01:55 UTC
Forecast valid from 24 at 03 UTC to 24 at 12 UTC
Wind 4 kt from variable directions
Visibility 10 km or more
Few clouds at a height of 3500 ft
Probability 30%
from 24 at 03 UTC to 24 at 08 UTC
Visibility: 6000 m

TAF: EGPO 240155Z 2403/2412 VRB04KT 9999 FEW035 PROB30 2403/2408 6000

Weather observations and forecasts of more than 4000 airports (METAR and TAF reports).

The available stations are represented by yellow and red dots on the map.

Hover mouse over dot to see the name of the station.

Then click to see weather observations and forecasts.

To change the map : click on the green buttons with a black cross to zoom in, on the green button with a dash to zoom out, or on the green arrows for adjacent maps.


METAR-TAF: